Time,TemperatureF,DewpointF,PressureIn,WindDirection,WindDirectionDegrees,WindSpeedMPH,WindSpeedGustMPH,Humidity,HourlyPrecipIn,Conditions,Clouds,dailyrainin,SoftwareType,DateUTC
2013-06-22 10:02:00,66.0,-99.9,-100.00,SSE,149,13.0,17.0,-999,0.23,,,0.64,,2013-06-22 15:02:00,
2013-06-22 10:12:00,66.0,-99.9,-100.00,SSE,149,13.0,17.0,-999,0.23,,,0.64,,2013-06-22 15:12:00,
2013-06-22 10:22:00,66.0,-99.9,-100.00,SSE,149,13.0,17.0,-999,0.23,,,0.64,,2013-06-22 15:22:00,
2013-06-22 10:43:00,67.0,-99.9,-100.00,SSE,158,8.0,12.0,-999,0.02,,,0.64,,2013-06-22 15:43:00,
2013-06-22 10:53:00,67.0,-99.9,-100.00,SSE,158,8.0,12.0,-999,0.02,,,0.64,,2013-06-22 15:53:00,
2013-06-22 11:12:00,69.0,-99.9,-100.00,SSE,155,5.0,11.0,-999,0.00,,,0.64,,2013-06-22 16:12:00,
2013-06-22 11:22:00,69.0,-99.9,-100.00,SSE,155,5.0,11.0,-999,0.00,,,0.64,,2013-06-22 16:22:00,
2013-06-22 11:43:00,70.0,-99.9,-100.00,SSE,150,9.0,13.0,-999,0.01,,,0.61,,2013-06-22 16:43:00,
2013-06-22 11:52:00,70.0,-99.9,-100.00,SSE,150,9.0,13.0,-999,0.01,,,0.61,,2013-06-22 16:52:00,
2013-06-22 12:11:00,73.0,-99.9,-100.00,SSE,151,5.0,13.0,-999,0.01,,,-99.99,,2013-06-22 17:11:00,
2013-06-22 12:22:00,73.0,-99.9,-100.00,SSE,151,5.0,13.0,-999,0.01,,,-99.99,,2013-06-22 17:22:00,
2013-06-22 12:30:00,78.0,-99.9,-100.00,SSE,151,6.0,8.0,-999,0.00,,,0.55,,2013-06-22 17:30:00,
2013-06-22 12:43:00,75.0,-99.9,-100.00,SSE,148,7.0,12.0,-999,0.00,,,0.58,,2013-06-22 17:43:00,
2013-06-22 12:52:00,75.0,-99.9,-100.00,SSE,148,7.0,12.0,-999,0.00,,,0.58,,2013-06-22 17:52:00,
2013-06-22 13:02:00,78.0,-99.9,-100.00,SSE,151,6.0,8.0,-999,0.00,,,0.55,,2013-06-22 18:02:00,
2013-06-22 13:12:00,78.0,-99.9,-100.00,SSE,151,6.0,8.0,-999,0.00,,,0.55,,2013-06-22 18:12:00,
2013-06-22 13:23:00,78.0,-99.9,-100.00,SSE,151,6.0,8.0,-999,0.00,,,0.55,,2013-06-22 18:23:00,
2013-06-22 13:30:00,82.0,-99.9,-100.00,SE,145,10.0,13.0,-999,0.00,,,0.52,,2013-06-22 18:30:00,
2013-06-22 14:12:00,82.0,-99.9,-100.00,SE,145,10.0,13.0,-999,0.00,,,0.52,,2013-06-22 19:12:00,
2013-06-22 14:22:00,82.0,-99.9,-100.00,SE,145,10.0,13.0,-999,0.00,,,0.52,,2013-06-22 19:22:00,
2013-06-22 15:11:00,84.0,-99.9,-100.00,SSE,150,11.0,21.0,-999,0.00,,,0.52,,2013-06-22 20:11:00,
2013-06-22 15:22:00,84.0,-99.9,-100.00,SSE,150,11.0,21.0,-999,0.00,,,0.52,,2013-06-22 20:22:00,
2013-06-22 15:30:00,85.0,-99.9,-100.00,SSE,150,9.0,11.0,-999,0.00,,,0.52,,2013-06-22 20:30:00,
2013-06-22 15:43:00,85.0,-99.9,-100.00,SSE,150,10.0,16.0,-999,0.00,,,0.52,,2013-06-22 20:43:00,
2013-06-22 15:53:00,85.0,-99.9,-100.00,SSE,150,10.0,16.0,-999,0.00,,,0.52,,2013-06-22 20:53:00,
2013-06-22 16:12:00,85.0,-99.9,-100.00,SSE,150,9.0,11.0,-999,0.00,,,0.52,,2013-06-22 21:12:00,
2013-06-22 16:22:00,85.0,-99.9,-100.00,SSE,150,9.0,11.0,-999,0.00,,,0.52,,2013-06-22 21:22:00,
2013-06-22 17:12:00,86.0,-99.9,-100.00,SSE,147,6.0,14.0,-999,0.00,,,0.52,,2013-06-22 22:12:00,
2013-06-22 17:24:00,86.0,-99.9,-100.00,SSE,147,6.0,14.0,-999,0.00,,,0.52,,2013-06-22 22:24:00,
2013-06-22 17:43:00,84.0,-99.9,-100.00,SSE,149,11.0,15.0,-999,0.00,,,0.52,,2013-06-22 22:43:00,
2013-06-22 17:52:00,84.0,-99.9,-100.00,SSE,149,11.0,15.0,-999,0.00,,,0.52,,2013-06-22 22:52:00,
2013-06-22 18:11:00,83.0,-99.9,-100.00,SSE,151,10.0,13.0,-999,0.00,,,0.52,,2013-06-22 23:11:00,
2013-06-22 18:22:00,83.0,-99.9,-100.00,SSE,151,10.0,13.0,-999,0.00,,,0.52,,2013-06-22 23:22:00,
2013-06-22 18:30:00,82.0,-99.9,-100.00,SSE,155,5.0,10.0,-999,0.00,,,0.52,,2013-06-22 23:30:00,
2013-06-22 18:43:00,83.0,-99.9,-100.00,SSE,152,6.0,9.0,-999,0.00,,,0.52,,2013-06-22 23:43:00,
2013-06-22 18:53:00,83.0,-99.9,-100.00,SSE,152,6.0,9.0,-999,0.00,,,0.52,,2013-06-22 23:53:00,
2013-06-22 19:11:00,82.0,-99.9,-100.00,SSE,155,5.0,10.0,-999,0.00,,,0.52,,2013-06-23 00:11:00,
2013-06-22 19:22:00,82.0,-99.9,-100.00,SSE,155,5.0,10.0,-999,0.00,,,0.52,,2013-06-23 00:22:00,
2013-06-22 19:30:00,84.0,-99.9,-100.00,SE,142,1.0,4.0,-999,0.00,,,0.52,,2013-06-23 00:30:00,
2013-06-22 20:12:00,84.0,-99.9,-100.00,SE,142,1.0,4.0,-999,0.00,,,0.52,,2013-06-23 01:12:00,
2013-06-22 20:22:00,84.0,-99.9,-100.00,SE,142,1.0,4.0,-999,0.00,,,0.52,,2013-06-23 01:22:00,
2013-06-22 21:11:00,82.0,-99.9,-100.00,SW,216,1.0,4.0,-999,0.00,,,0.52,,2013-06-23 02:11:00,
2013-06-22 21:21:00,82.0,-99.9,-100.00,SW,216,1.0,4.0,-999,0.00,,,0.52,,2013-06-23 02:21:00,
2013-06-22 21:31:00,81.0,-99.9,-100.00,South,175,1.0,3.0,-999,0.00,,,0.52,,2013-06-23 02:31:00,
2013-06-22 21:41:00,81.0,-99.9,-100.00,South,175,1.0,3.0,-999,0.00,,,0.52,,2013-06-23 02:41:00,
2013-06-22 21:52:00,81.0,-99.9,-100.00,South,175,1.0,3.0,-999,0.00,,,0.52,,2013-06-23 02:52:00,
2013-06-22 22:01:00,80.0,-99.9,-100.00,SSE,153,3.0,8.0,-999,0.00,,,0.51,,2013-06-23 03:01:00,
2013-06-22 22:11:00,80.0,-99.9,-100.00,SSE,153,3.0,8.0,-999,0.00,,,0.51,,2013-06-23 03:11:00,
2013-06-22 22:21:00,80.0,-99.9,-100.00,SSE,153,3.0,8.0,-999,0.00,,,0.51,,2013-06-23 03:21:00,
2013-06-22 22:31:00,79.0,-99.9,-100.00,South,191,2.0,7.0,-999,0.00,,,0.51,,2013-06-23 03:31:00,
2013-06-22 22:41:00,79.0,-99.9,-100.00,South,191,2.0,7.0,-999,0.00,,,0.51,,2013-06-23 03:41:00,
2013-06-22 22:52:00,79.0,-99.9,-100.00,South,191,2.0,7.0,-999,0.00,,,0.51,,2013-06-23 03:52:00,
2013-06-22 23:01:00,78.0,-99.9,-100.00,SSE,149,3.0,9.0,-999,0.00,,,0.51,,2013-06-23 04:01:00,
2013-06-22 23:11:00,78.0,-99.9,-100.00,SSE,149,3.0,9.0,-999,0.00,,,0.51,,2013-06-23 04:11:00,
2013-06-22 23:21:00,78.0,-99.9,-100.00,SSE,149,3.0,9.0,-999,0.00,,,0.51,,2013-06-23 04:21:00,
2013-06-22 23:31:00,77.0,-99.9,-100.00,SSE,148,4.0,12.0,-999,0.00,,,0.51,,2013-06-23 04:31:00,
2013-06-22 23:42:00,77.0,-99.9,-100.00,SSE,148,4.0,12.0,-999,0.00,,,0.51,,2013-06-23 04:42:00,
2013-06-22 23:52:00,77.0,-99.9,-100.00,SSE,148,4.0,12.0,-999,0.00,,,0.51,,2013-06-23 04:52:00,